sensor_id;sensor_type;location;lat;lon;timestamp;P1;durP1;ratioP1;P2;durP2;ratioP2
70757;SDS011;59316;52.964;7.102;2022-09-03T00:10:42;1.90;;;1.13;;
70757;SDS011;59316;52.964;7.102;2022-09-03T00:16:05;1.15;;;0.90;;
70757;SDS011;59316;52.964;7.102;2022-09-03T00:21:15;3.80;;;1.30;;
70757;SDS011;59316;52.964;7.102;2022-09-03T00:26:24;1.00;;;0.85;;
70757;SDS011;59316;52.964;7.102;2022-09-03T00:31:47;1.90;;;1.02;;
70757;SDS011;59316;52.964;7.102;2022-09-03T00:36:53;4.53;;;1.08;;
70757;SDS011;59316;52.964;7.102;2022-09-03T00:47:23;2.17;;;1.08;;
70757;SDS011;59316;52.964;7.102;2022-09-03T00:52:50;2.13;;;1.02;;
70757;SDS011;59316;52.964;7.102;2022-09-03T01:25:07;2.00;;;1.10;;
70757;SDS011;59316;52.964;7.102;2022-09-03T01:30:19;1.55;;;0.98;;
70757;SDS011;59316;52.964;7.102;2022-09-03T01:46:24;4.55;;;1.23;;
70757;SDS011;59316;52.964;7.102;2022-09-03T01:51:31;3.90;;;1.20;;
70757;SDS011;59316;52.964;7.102;2022-09-03T02:01:58;2.55;;;1.40;;
70757;SDS011;59316;52.964;7.102;2022-09-03T02:07:05;1.45;;;1.10;;
70757;SDS011;59316;52.964;7.102;2022-09-03T02:12:09;3.35;;;1.40;;
70757;SDS011;59316;52.964;7.102;2022-09-03T02:17:16;5.93;;;1.40;;
70757;SDS011;59316;52.964;7.102;2022-09-03T02:22:19;4.88;;;1.67;;
70757;SDS011;59316;52.964;7.102;2022-09-03T02:27:21;1.90;;;1.10;;
70757;SDS011;59316;52.964;7.102;2022-09-03T02:32:23;1.70;;;1.60;;
70757;SDS011;59316;52.964;7.102;2022-09-03T02:37:25;2.25;;;1.48;;
70757;SDS011;59316;52.964;7.102;2022-09-03T02:42:28;3.00;;;1.35;;
70757;SDS011;59316;52.964;7.102;2022-09-03T02:47:30;2.25;;;1.33;;
70757;SDS011;59316;52.964;7.102;2022-09-03T02:52:37;2.72;;;1.30;;
70757;SDS011;59316;52.964;7.102;2022-09-03T02:57:39;1.60;;;1.40;;
70757;SDS011;59316;52.964;7.102;2022-09-03T03:02:42;1.60;;;1.30;;
70757;SDS011;59316;52.964;7.102;2022-09-03T03:07:44;1.27;;;1.10;;
70757;SDS011;59316;52.964;7.102;2022-09-03T03:12:46;2.17;;;1.30;;
70757;SDS011;59316;52.964;7.102;2022-09-03T03:17:48;3.65;;;1.40;;
70757;SDS011;59316;52.964;7.102;2022-09-03T03:22:50;2.47;;;1.60;;
70757;SDS011;59316;52.964;7.102;2022-09-03T03:27:56;1.30;;;1.00;;
70757;SDS011;59316;52.964;7.102;2022-09-03T03:32:58;4.22;;;1.30;;
70757;SDS011;59316;52.964;7.102;2022-09-03T03:38:00;3.17;;;1.30;;
70757;SDS011;59316;52.964;7.102;2022-09-03T03:43:02;2.53;;;1.40;;
70757;SDS011;59316;52.964;7.102;2022-09-03T03:48:04;1.30;;;1.20;;
70757;SDS011;59316;52.964;7.102;2022-09-03T03:53:07;4.05;;;1.90;;
70757;SDS011;59316;52.964;7.102;2022-09-03T03:58:09;3.03;;;1.50;;
70757;SDS011;59316;52.964;7.102;2022-09-03T04:03:11;2.45;;;1.63;;
70757;SDS011;59316;52.964;7.102;2022-09-03T04:08:13;2.30;;;1.65;;
70757;SDS011;59316;52.964;7.102;2022-09-03T04:13:15;3.30;;;1.60;;
70757;SDS011;59316;52.964;7.102;2022-09-03T04:18:18;4.07;;;1.70;;
70757;SDS011;59316;52.964;7.102;2022-09-03T04:23:20;6.22;;;1.70;;
70757;SDS011;59316;52.964;7.102;2022-09-03T04:28:22;2.03;;;1.48;;
70757;SDS011;59316;52.964;7.102;2022-09-03T04:33:26;2.45;;;1.70;;
70757;SDS011;59316;52.964;7.102;2022-09-03T04:38:28;4.15;;;1.80;;
70757;SDS011;59316;52.964;7.102;2022-09-03T04:43:30;2.45;;;1.73;;
70757;SDS011;59316;52.964;7.102;2022-09-03T04:48:33;2.58;;;1.85;;
70757;SDS011;59316;52.964;7.102;2022-09-03T04:53:39;2.83;;;2.08;;
70757;SDS011;59316;52.964;7.102;2022-09-03T04:58:43;3.30;;;2.00;;
70757;SDS011;59316;52.964;7.102;2022-09-03T05:03:46;4.00;;;1.88;;
70757;SDS011;59316;52.964;7.102;2022-09-03T05:08:49;2.75;;;2.00;;
70757;SDS011;59316;52.964;7.102;2022-09-03T05:13:53;4.18;;;1.90;;
70757;SDS011;59316;52.964;7.102;2022-09-03T05:18:58;3.45;;;2.10;;
70757;SDS011;59316;52.964;7.102;2022-09-03T05:29:03;3.35;;;2.15;;
70757;SDS011;59316;52.964;7.102;2022-09-03T05:34:07;2.45;;;2.00;;
70757;SDS011;59316;52.964;7.102;2022-09-03T05:39:09;2.17;;;1.90;;
70757;SDS011;59316;52.964;7.102;2022-09-03T05:44:11;3.90;;;2.10;;
70757;SDS011;59316;52.964;7.102;2022-09-03T05:49:14;3.90;;;2.08;;
70757;SDS011;59316;52.964;7.102;2022-09-03T05:54:16;2.72;;;2.17;;
70757;SDS011;59316;52.964;7.102;2022-09-03T05:59:18;3.13;;;2.30;;
70757;SDS011;59316;52.964;7.102;2022-09-03T06:04:20;3.40;;;2.05;;
70757;SDS011;59316;52.964;7.102;2022-09-03T06:09:22;3.75;;;1.80;;
70757;SDS011;59316;52.964;7.102;2022-09-03T06:14:25;2.33;;;1.83;;
70757;SDS011;59316;52.964;7.102;2022-09-03T06:19:27;2.92;;;1.85;;
70757;SDS011;59316;52.964;7.102;2022-09-03T06:24:29;2.10;;;1.80;;
70757;SDS011;59316;52.964;7.102;2022-09-03T06:29:33;2.55;;;1.90;;
70757;SDS011;59316;52.964;7.102;2022-09-03T06:34:36;3.75;;;1.73;;
70757;SDS011;59316;52.964;7.102;2022-09-03T06:39:38;4.00;;;1.90;;
70757;SDS011;59316;52.964;7.102;2022-09-03T06:44:40;8.13;;;1.90;;
70757;SDS011;59316;52.964;7.102;2022-09-03T06:49:42;2.05;;;1.73;;
70757;SDS011;59316;52.964;7.102;2022-09-03T06:54:44;3.67;;;1.57;;
70757;SDS011;59316;52.964;7.102;2022-09-03T06:59:47;2.70;;;1.80;;
70757;SDS011;59316;52.964;7.102;2022-09-03T07:04:49;5.57;;;1.70;;
70757;SDS011;59316;52.964;7.102;2022-09-03T07:09:51;4.90;;;1.77;;
70757;SDS011;59316;52.964;7.102;2022-09-03T07:14:53;3.77;;;1.60;;
70757;SDS011;59316;52.964;7.102;2022-09-03T07:19:55;4.00;;;1.50;;
70757;SDS011;59316;52.964;7.102;2022-09-03T07:24:57;2.05;;;1.30;;
70757;SDS011;59316;52.964;7.102;2022-09-03T07:29:59;2.80;;;1.35;;
70757;SDS011;59316;52.964;7.102;2022-09-03T07:35:02;3.47;;;1.45;;
70757;SDS011;59316;52.964;7.102;2022-09-03T07:40:04;3.72;;;1.20;;
70757;SDS011;59316;52.964;7.102;2022-09-03T07:50:09;2.67;;;1.20;;
70757;SDS011;59316;52.964;7.102;2022-09-03T07:55:11;1.60;;;1.10;;
70757;SDS011;59316;52.964;7.102;2022-09-03T08:00:14;3.63;;;1.40;;
70757;SDS011;59316;52.964;7.102;2022-09-03T08:10:23;3.25;;;1.10;;
70757;SDS011;59316;52.964;7.102;2022-09-03T08:15:28;2.58;;;1.17;;
70757;SDS011;59316;52.964;7.102;2022-09-03T08:20:30;2.45;;;1.20;;
70757;SDS011;59316;52.964;7.102;2022-09-03T08:25:32;2.35;;;1.10;;
70757;SDS011;59316;52.964;7.102;2022-09-03T08:30:34;3.08;;;1.40;;
70757;SDS011;59316;52.964;7.102;2022-09-03T08:40:38;4.40;;;1.10;;
70757;SDS011;59316;52.964;7.102;2022-09-03T08:50:44;1.20;;;1.10;;
70757;SDS011;59316;52.964;7.102;2022-09-03T08:56:03;2.97;;;1.20;;
70757;SDS011;59316;52.964;7.102;2022-09-03T09:17:20;1.42;;;0.85;;
70757;SDS011;59316;52.964;7.102;2022-09-03T09:27:36;1.10;;;1.00;;
70757;SDS011;59316;52.964;7.102;2022-09-03T09:32:38;4.10;;;0.98;;
70757;SDS011;59316;52.964;7.102;2022-09-03T09:37:51;1.00;;;0.90;;
70757;SDS011;59316;52.964;7.102;2022-09-03T09:48:08;2.70;;;0.90;;
70757;SDS011;59316;52.964;7.102;2022-09-03T09:53:23;1.90;;;0.90;;
70757;SDS011;59316;52.964;7.102;2022-09-03T09:58:28;5.13;;;1.15;;
70757;SDS011;59316;52.964;7.102;2022-09-03T10:03:31;1.98;;;1.10;;
70757;SDS011;59316;52.964;7.102;2022-09-03T10:08:34;3.58;;;1.10;;
70757;SDS011;59316;52.964;7.102;2022-09-03T10:13:41;2.45;;;1.13;;
70757;SDS011;59316;52.964;7.102;2022-09-03T10:29:32;1.98;;;0.93;;
70757;SDS011;59316;52.964;7.102;2022-09-03T10:50:52;5.13;;;1.00;;
70757;SDS011;59316;52.964;7.102;2022-09-03T10:56:11;2.58;;;1.10;;
70757;SDS011;59316;52.964;7.102;2022-09-03T11:06:42;5.75;;;0.98;;
70757;SDS011;59316;52.964;7.102;2022-09-03T11:12:09;1.38;;;0.98;;
70757;SDS011;59316;52.964;7.102;2022-09-03T11:17:27;0.90;;;0.80;;
70757;SDS011;59316;52.964;7.102;2022-09-03T11:22:34;3.10;;;1.00;;
70757;SDS011;59316;52.964;7.102;2022-09-03T11:32:49;2.35;;;1.00;;
70757;SDS011;59316;52.964;7.102;2022-09-03T11:37:58;4.53;;;1.05;;
70757;SDS011;59316;52.964;7.102;2022-09-03T11:43:24;3.92;;;1.08;;
70757;SDS011;59316;52.964;7.102;2022-09-03T11:48:45;2.25;;;1.00;;
70757;SDS011;59316;52.964;7.102;2022-09-03T11:53:53;1.60;;;1.05;;
70757;SDS011;59316;52.964;7.102;2022-09-03T12:04:14;1.45;;;0.70;;
70757;SDS011;59316;52.964;7.102;2022-09-03T12:09:54;2.95;;;1.00;;
70757;SDS011;59316;52.964;7.102;2022-09-03T12:15:13;1.95;;;1.20;;
70757;SDS011;59316;52.964;7.102;2022-09-03T12:20:37;2.25;;;1.08;;
70757;SDS011;59316;52.964;7.102;2022-09-03T12:25:43;2.10;;;1.30;;
70757;SDS011;59316;52.964;7.102;2022-09-03T12:30:46;3.40;;;0.95;;
70757;SDS011;59316;52.964;7.102;2022-09-03T12:35:55;1.48;;;0.80;;
70757;SDS011;59316;52.964;7.102;2022-09-03T12:41:00;2.08;;;0.90;;
70757;SDS011;59316;52.964;7.102;2022-09-03T12:46:23;1.90;;;1.08;;
70757;SDS011;59316;52.964;7.102;2022-09-03T12:51:38;1.50;;;0.77;;
70757;SDS011;59316;52.964;7.102;2022-09-03T12:56:56;2.73;;;0.90;;
70757;SDS011;59316;52.964;7.102;2022-09-03T13:02:02;3.95;;;0.90;;
70757;SDS011;59316;52.964;7.102;2022-09-03T13:12:31;2.63;;;1.10;;
70757;SDS011;59316;52.964;7.102;2022-09-03T13:23:33;1.70;;;0.88;;
70757;SDS011;59316;52.964;7.102;2022-09-03T13:34:14;2.45;;;1.00;;
70757;SDS011;59316;52.964;7.102;2022-09-03T13:39:29;1.65;;;0.85;;
70757;SDS011;59316;52.964;7.102;2022-09-03T13:44:54;1.27;;;0.98;;
70757;SDS011;59316;52.964;7.102;2022-09-03T13:55:40;2.20;;;1.05;;
70757;SDS011;59316;52.964;7.102;2022-09-03T14:00:51;2.95;;;0.80;;
70757;SDS011;59316;52.964;7.102;2022-09-03T14:06:17;2.08;;;0.90;;
70757;SDS011;59316;52.964;7.102;2022-09-03T14:27:04;4.50;;;1.40;;
70757;SDS011;59316;52.964;7.102;2022-09-03T14:37:42;3.00;;;1.02;;
70757;SDS011;59316;52.964;7.102;2022-09-03T14:48:55;1.83;;;1.00;;
70757;SDS011;59316;52.964;7.102;2022-09-03T14:59:32;1.67;;;1.00;;
70757;SDS011;59316;52.964;7.102;2022-09-03T15:10:26;1.40;;;0.90;;
70757;SDS011;59316;52.964;7.102;2022-09-03T15:31:31;2.35;;;0.98;;
70757;SDS011;59316;52.964;7.102;2022-09-03T15:36:40;2.92;;;1.00;;
70757;SDS011;59316;52.964;7.102;2022-09-03T15:41:51;2.95;;;1.20;;
70757;SDS011;59316;52.964;7.102;2022-09-03T15:47:06;1.63;;;0.90;;
70757;SDS011;59316;52.964;7.102;2022-09-03T15:57:56;3.75;;;1.08;;
70757;SDS011;59316;52.964;7.102;2022-09-03T16:03:09;2.15;;;0.90;;
70757;SDS011;59316;52.964;7.102;2022-09-03T16:13:55;1.25;;;1.15;;
70757;SDS011;59316;52.964;7.102;2022-09-03T16:29:49;1.88;;;1.10;;
70757;SDS011;59316;52.964;7.102;2022-09-03T16:35:36;6.57;;;1.13;;
70757;SDS011;59316;52.964;7.102;2022-09-03T16:51:06;3.70;;;1.20;;
70757;SDS011;59316;52.964;7.102;2022-09-03T17:01:43;1.95;;;1.17;;
70757;SDS011;59316;52.964;7.102;2022-09-03T17:18:50;3.85;;;1.20;;
70757;SDS011;59316;52.964;7.102;2022-09-03T17:39:46;1.95;;;1.20;;
70757;SDS011;59316;52.964;7.102;2022-09-03T17:50:27;3.20;;;1.30;;
70757;SDS011;59316;52.964;7.102;2022-09-03T17:55:36;1.75;;;1.10;;
70757;SDS011;59316;52.964;7.102;2022-09-03T18:06:08;2.35;;;1.17;;
70757;SDS011;59316;52.964;7.102;2022-09-03T18:11:33;4.43;;;1.20;;
70757;SDS011;59316;52.964;7.102;2022-09-03T18:17:01;6.05;;;1.13;;
70757;SDS011;59316;52.964;7.102;2022-09-03T18:22:16;2.38;;;1.10;;
70757;SDS011;59316;52.964;7.102;2022-09-03T18:27:24;2.10;;;1.40;;
70757;SDS011;59316;52.964;7.102;2022-09-03T18:32:37;1.65;;;1.17;;
70757;SDS011;59316;52.964;7.102;2022-09-03T18:37:39;1.42;;;1.30;;
70757;SDS011;59316;52.964;7.102;2022-09-03T18:42:55;2.33;;;1.30;;
70757;SDS011;59316;52.964;7.102;2022-09-03T18:48:33;3.13;;;1.23;;
70757;SDS011;59316;52.964;7.102;2022-09-03T18:59:07;4.30;;;1.35;;
70757;SDS011;59316;52.964;7.102;2022-09-03T19:04:30;3.38;;;1.27;;
70757;SDS011;59316;52.964;7.102;2022-09-03T19:09:54;2.47;;;1.02;;
70757;SDS011;59316;52.964;7.102;2022-09-03T19:15:00;1.98;;;1.20;;
70757;SDS011;59316;52.964;7.102;2022-09-03T19:25:19;2.25;;;1.30;;
70757;SDS011;59316;52.964;7.102;2022-09-03T19:30:24;5.53;;;1.50;;
70757;SDS011;59316;52.964;7.102;2022-09-03T19:35:38;2.25;;;1.40;;
70757;SDS011;59316;52.964;7.102;2022-09-03T19:51:38;1.67;;;1.33;;
70757;SDS011;59316;52.964;7.102;2022-09-03T19:56:46;2.42;;;1.58;;
70757;SDS011;59316;52.964;7.102;2022-09-03T20:01:49;4.13;;;1.40;;
70757;SDS011;59316;52.964;7.102;2022-09-03T20:06:53;4.35;;;1.60;;
70757;SDS011;59316;52.964;7.102;2022-09-03T20:11:56;3.57;;;1.60;;
70757;SDS011;59316;52.964;7.102;2022-09-03T21:00:05;3.17;;;1.33;;
70757;SDS011;59316;52.964;7.102;2022-09-03T21:05:16;4.93;;;2.55;;
70757;SDS011;59316;52.964;7.102;2022-09-03T21:21:37;3.78;;;1.50;;
70757;SDS011;59316;52.964;7.102;2022-09-03T21:27:19;1.60;;;1.15;;
70757;SDS011;59316;52.964;7.102;2022-09-03T21:32:36;5.90;;;1.50;;
70757;SDS011;59316;52.964;7.102;2022-09-03T21:37:54;2.20;;;1.50;;
70757;SDS011;59316;52.964;7.102;2022-09-03T21:48:23;1.80;;;1.40;;
70757;SDS011;59316;52.964;7.102;2022-09-03T21:53:47;1.55;;;1.30;;
70757;SDS011;59316;52.964;7.102;2022-09-03T22:03:57;3.05;;;1.50;;
70757;SDS011;59316;52.964;7.102;2022-09-03T22:09:07;2.97;;;1.50;;
70757;SDS011;59316;52.964;7.102;2022-09-03T22:14:40;2.80;;;1.65;;
70757;SDS011;59316;52.964;7.102;2022-09-03T22:19:46;2.15;;;1.20;;
70757;SDS011;59316;52.964;7.102;2022-09-03T22:30:00;2.25;;;1.60;;
70757;SDS011;59316;52.964;7.102;2022-09-03T22:41:01;2.60;;;1.52;;
70757;SDS011;59316;52.964;7.102;2022-09-03T22:46:21;2.20;;;1.50;;
70757;SDS011;59316;52.964;7.102;2022-09-03T22:51:25;4.53;;;1.67;;
70757;SDS011;59316;52.964;7.102;2022-09-03T22:56:37;4.53;;;1.55;;
70757;SDS011;59316;52.964;7.102;2022-09-03T23:01:43;4.90;;;1.80;;
70757;SDS011;59316;52.964;7.102;2022-09-03T23:07:04;2.20;;;1.50;;
70757;SDS011;59316;52.964;7.102;2022-09-03T23:12:20;1.85;;;1.48;;
70757;SDS011;59316;52.964;7.102;2022-09-03T23:17:35;3.28;;;1.60;;
70757;SDS011;59316;52.964;7.102;2022-09-03T23:22:47;3.42;;;2.08;;
70757;SDS011;59316;52.964;7.102;2022-09-03T23:27:55;2.67;;;1.70;;
70757;SDS011;59316;52.964;7.102;2022-09-03T23:33:01;3.60;;;1.63;;
70757;SDS011;59316;52.964;7.102;2022-09-03T23:44:24;2.58;;;1.80;;
70757;SDS011;59316;52.964;7.102;2022-09-03T23:59:56;4.25;;;2.15;;
